Airport details for: LTBJ (Turkey)

Metar

LTBJ 270820Z 21010KT 170V260 9999 SCT030 29/19 Q1004 NOSIG

General details

ICAO: LTBJ
IATA: ADB
Name (city): Adnan Menderes
Major:
Country: Turkey
vACC: vACC Turkey
Description:
Scenery links:
FS9 scenery:
FSX/P3D scenery:
XP scenery:
Elevation: 410 ft.
Transition altitude: 10000 ft.
MSA: 10600 ft.
Latitude: 38.289167
Longitude: 27.155
LTBJ Charts
LTBJ Notams
LTBJ Online stations

Runways

Number Course Length Elevation Lat Lon ILS ILS freq ILS FAC GP
16L 163° 10630ft / 3240 m 410ft 38.30655 27.152706 108.5 163° 3.1°
16R 163° 10630ft / 3240 m 410ft 38.306231 27.150642 - - 3.0°
34L 343° 10630ft / 3240 m 364ft 38.277828 27.159192 - - 3.0°
34R 343° 10630ft / 3240 m 364ft 38.27825 27.161222 110.3 343° 3.0°